Time;durP1;ratioP1;P1;durP2;ratioP2;P2;SDS_P1;SDS_P2;PMS_P1;PMS_P2;Temp;Humidity;BMP_temperature;BMP_pressure;BME280_temperature;BME280_humidity;BME280_pressure;Samples;Min_cycle;Max_cycle;Signal;HPM_P1;HPM_P2
2023/05/08 00:00:18;;;;;;;16.70;12.77;;;21.30;86.50;;;;;;6125113;23;20001;-82
2023/05/08 00:02:44;;;;;;;13.23;11.60;;;21.30;86.70;;;;;;6124459;23;20073;-82
2023/05/08 00:05:09;;;;;;;15.23;12.88;;;21.30;86.90;;;;;;6100062;23;20006;-85
2023/05/08 00:07:36;;;;;;;15.30;12.48;;;21.30;86.90;;;;;;6128133;23;20005;-86
2023/05/08 00:10:04;;;;;;;14.43;12.07;;;21.30;87.20;;;;;;6127819;23;20006;-86
2023/05/08 00:12:30;;;;;;;15.10;13.15;;;21.20;87.10;;;;;;6102090;23;20329;-86
2023/05/08 00:14:56;;;;;;;15.40;12.70;;;21.30;87.30;;;;;;6127972;23;20009;-86
2023/05/08 00:17:21;;;;;;;15.38;13.43;;;21.20;87.30;;;;;;6127585;23;20081;-86
2023/05/08 00:19:47;;;;;;;14.75;12.25;;;21.20;87.40;;;;;;6127943;23;20092;-85
2023/05/08 00:22:13;;;;;;;15.13;12.80;;;21.20;87.50;;;;;;6127466;23;20017;-85
2023/05/08 00:24:39;;;;;;;13.50;11.93;;;21.20;87.60;;;;;;6126708;23;20002;-86
2023/05/08 00:27:05;;;;;;;18.00;15.10;;;21.20;87.80;;;;;;6127593;23;20500;-86
2023/05/08 00:29:31;;;;;;;16.50;13.07;;;21.20;87.80;;;;;;6127721;23;20002;-87
2023/05/08 00:31:56;;;;;;;18.55;13.57;;;21.20;87.80;;;;;;6128608;23;20328;-87
2023/05/08 00:34:22;;;;;;;14.45;12.75;;;21.20;87.80;;;;;;6128424;23;20043;-86
2023/05/08 00:36:48;;;;;;;15.30;13.02;;;21.20;87.80;;;;;;6101593;23;20089;-86
2023/05/08 00:39:13;;;;;;;15.63;12.77;;;21.20;87.80;;;;;;6127379;23;20009;-87
2023/05/08 00:41:39;;;;;;;15.32;12.98;;;21.20;87.90;;;;;;6128691;23;20098;-87
2023/05/08 00:44:05;;;;;;;16.48;13.18;;;21.20;87.90;;;;;;6128133;23;20082;-87
2023/05/08 00:46:30;;;;;;;13.27;11.80;;;21.20;88.00;;;;;;6128529;23;20006;-87
2023/05/08 00:48:56;;;;;;;16.08;13.50;;;21.10;88.00;;;;;;6129146;23;20002;-87
2023/05/08 00:51:23;;;;;;;14.75;12.20;;;21.10;88.10;;;;;;6127960;23;20065;-87
2023/05/08 00:53:49;;;;;;;15.85;13.40;;;21.10;88.20;;;;;;6128041;23;20006;-87
2023/05/08 00:56:15;;;;;;;14.05;12.55;;;21.10;88.40;;;;;;6102149;23;20032;-87
2023/05/08 00:58:43;;;;;;;16.58;14.18;;;21.00;88.80;;;;;;6127985;23;20002;-87
2023/05/08 01:01:10;;;;;;;17.67;14.13;;;21.00;89.00;;;;;;6128230;23;20002;-87
2023/05/08 01:03:36;;;;;;;19.33;14.85;;;20.90;89.00;;;;;;6128326;23;19997;-86
2023/05/08 01:06:03;;;;;;;14.70;12.50;;;20.80;88.50;;;;;;6127276;23;20005;-86
2023/05/08 01:08:30;;;;;;;18.20;14.35;;;20.80;88.10;;;;;;6127163;23;20069;-87
2023/05/08 01:11:30;;;;;;;15.63;12.77;;;20.80;87.80;;;;;;6101373;23;20014;-85
2023/05/08 01:13:59;;;;;;;17.52;14.27;;;20.80;87.70;;;;;;6127686;23;20006;-86
2023/05/08 01:16:34;;;;;;;15.50;13.18;;;20.70;87.70;;;;;;6127484;23;20009;-86
2023/05/08 01:19:20;;;;;;;16.35;12.85;;;20.70;87.80;;;;;;6126941;23;20009;-85
2023/05/08 01:22:03;;;;;;;12.73;11.07;;;20.70;87.80;;;;;;6127310;23;20029;-85
2023/05/08 01:24:53;;;;;;;11.82;10.48;;;20.60;87.90;;;;;;6127309;23;20379;-84
2023/05/08 01:27:39;;;;;;;14.15;12.07;;;20.60;87.90;;;;;;6127248;23;20431;-85
2023/05/08 01:30:18;;;;;;;13.80;11.75;;;20.60;88.20;;;;;;6127290;23;20705;-85
2023/05/08 01:32:56;;;;;;;11.60;10.20;;;20.60;88.00;;;;;;6127288;23;20316;-85
2023/05/08 01:35:59;;;;;;;13.63;11.35;;;20.60;87.70;;;;;;6126900;23;20009;-84
2023/05/08 01:38:38;;;;;;;19.80;12.73;;;20.60;87.30;;;;;;6081277;23;20223;-85
2023/05/08 01:41:15;;;;;;;12.05;10.75;;;20.60;87.00;;;;;;6127054;23;20006;-84
2023/05/08 01:43:59;;;;;;;11.65;9.05;;;20.60;86.90;;;;;;6127543;23;19998;-85
2023/05/08 01:46:27;;;;;;;11.80;9.38;;;20.60;86.70;;;;;;6127205;23;20330;-85
2023/05/08 01:49:19;;;;;;;10.60;8.75;;;20.60;86.90;;;;;;6127413;23;20009;-87
2023/05/08 01:51:52;;;;;;;8.32;7.35;;;20.70;87.20;;;;;;6126829;23;20008;-85
2023/05/08 01:54:24;;;;;;;10.98;8.95;;;20.70;87.50;;;;;;6127655;23;20417;-86
2023/05/08 01:56:53;;;;;;;9.40;8.40;;;20.70;87.90;;;;;;6127092;23;20333;-85
2023/05/08 01:59:22;;;;;;;7.70;6.90;;;20.70;88.10;;;;;;6127096;23;20029;-86
2023/05/08 02:01:51;;;;;;;9.13;8.13;;;20.70;87.70;;;;;;6101092;23;20384;-85
2023/05/08 02:04:18;;;;;;;8.30;6.93;;;20.70;87.60;;;;;;6126557;23;20413;-84
2023/05/08 02:06:44;;;;;;;8.38;6.60;;;20.70;87.70;;;;;;6126510;23;20324;-85
2023/05/08 02:09:11;;;;;;;6.60;5.30;;;20.70;88.30;;;;;;6126647;23;20026;-85
2023/05/08 02:11:40;;;;;;;6.47;5.68;;;20.70;88.20;;;;;;6126353;23;20030;-85
2023/05/08 02:14:07;;;;;;;5.75;5.20;;;20.60;88.40;;;;;;6126770;23;20009;-85
2023/05/08 02:16:35;;;;;;;6.00;4.55;;;20.60;88.60;;;;;;6126899;23;20009;-85
2023/05/08 02:19:03;;;;;;;7.32;5.75;;;20.60;88.80;;;;;;6127346;23;20012;-85
2023/05/08 02:21:30;;;;;;;5.75;4.57;;;20.50;89.00;;;;;;6126973;23;20009;-84
2023/05/08 02:23:58;;;;;;;5.93;3.63;;;20.40;89.30;;;;;;6126605;23;19998;-84
2023/05/08 02:26:25;;;;;;;3.10;2.80;;;20.40;89.20;;;;;;6100209;23;20017;-84
2023/05/08 02:28:54;;;;;;;4.90;2.95;;;20.40;89.00;;;;;;6126462;23;20002;-85
2023/05/08 02:31:20;;;;;;;7.13;3.33;;;20.40;89.10;;;;;;6126640;23;20006;-84
2023/05/08 02:33:48;;;;;;;3.15;2.85;;;20.30;89.40;;;;;;6126198;23;20130;-83
2023/05/08 02:36:17;;;;;;;4.93;2.72;;;20.30;89.60;;;;;;6125896;23;20468;-84
2023/05/08 02:38:50;;;;;;;6.10;2.72;;;20.20;89.90;;;;;;6125770;23;20030;-83
2023/05/08 02:41:19;;;;;;;2.50;2.05;;;20.20;90.10;;;;;;6126171;23;20352;-85
2023/05/08 02:43:45;;;;;;;3.70;2.53;;;20.10;90.10;;;;;;6126347;23;20009;-84
2023/05/08 02:46:16;;;;;;;3.72;2.50;;;20.00;90.20;;;;;;6129646;23;20040;-83
2023/05/08 02:48:57;;;;;;;4.45;1.95;;;20.00;90.30;;;;;;6101990;23;20325;-84
2023/05/08 02:51:36;;;;;;;2.65;1.80;;;20.00;90.40;;;;;;6125689;23;20029;-84
2023/05/08 02:54:28;;;;;;;3.50;2.50;;;20.00;90.30;;;;;;6126218;23;20340;-84
2023/05/08 02:57:07;;;;;;;2.33;1.90;;;20.00;90.70;;;;;;6080536;23;20013;-85
2023/05/08 02:59:45;;;;;;;2.97;2.50;;;20.00;90.60;;;;;;6126466;23;20032;-84
2023/05/08 03:02:24;;;;;;;3.42;2.67;;;20.00;90.70;;;;;;6126417;23;20009;-84
2023/05/08 03:04:55;;;;;;;3.13;2.58;;;20.10;91.10;;;;;;6126679;23;20030;-84
2023/05/08 03:07:24;;;;;;;5.05;2.92;;;20.00;91.10;;;;;;6126385;23;20002;-83
2023/05/08 03:09:57;;;;;;;3.35;3.00;;;20.10;91.30;;;;;;6126847;23;20022;-85
2023/05/08 03:12:27;;;;;;;8.18;3.35;;;20.10;91.30;;;;;;6126568;23;20029;-83
2023/05/08 03:15:01;;;;;;;;;;;20.10;91.50;;;;;;6101424;23;20096;-83
2023/05/08 03:18:01;;;;;;;4.95;3.17;;;20.10;91.50;;;;;;6131276;23;19979;-84
2023/05/08 03:20:32;;;;;;;4.43;3.53;;;20.00;91.60;;;;;;6095373;23;20010;-84
2023/05/08 03:23:04;;;;;;;6.32;3.40;;;19.90;91.60;;;;;;6128597;23;20022;-83
2023/05/08 03:25:51;;;;;;;4.82;4.20;;;19.90;91.80;;;;;;6109955;23;20033;-84
2023/05/08 03:29:15;;;;;;;6.75;4.85;;;19.90;91.80;;;;;;6109554;23;20010;-84
2023/05/08 04:11:09;;;;;;;5.32;4.82;;;19.50;91.80;;;;;;6111335;23;20017;-85
2023/05/08 04:14:03;;;;;;;10.82;4.70;;;19.50;92.10;;;;;;6111192;23;20332;-86
2023/05/08 04:16:38;;;;;;;5.35;4.65;;;19.50;92.00;;;;;;6112961;23;20002;-86
2023/05/08 04:19:19;;;;;;;5.97;5.28;;;19.50;91.90;;;;;;6112013;23;20392;-86
2023/05/08 04:22:48;;;;;;;5.05;4.47;;;19.50;91.90;;;;;;6136118;23;20013;-85
2023/05/08 04:25:45;;;;;;;5.35;4.72;;;19.40;91.90;;;;;;6109770;23;20009;-86
2023/05/08 04:32:29;;;;;;;5.28;4.78;;;19.30;91.70;;;;;;6009118;23;20335;-86
2023/05/08 04:34:58;;;;;;;6.35;4.60;;;19.30;91.80;;;;;;6103136;23;20497;-84
2023/05/08 04:37:28;;;;;;;7.03;4.68;;;19.30;91.70;;;;;;6127801;23;20026;-84
2023/05/08 04:39:54;;;;;;;6.38;4.90;;;19.30;91.80;;;;;;6128129;23;20000;-84
2023/05/08 04:42:20;;;;;;;5.15;4.50;;;19.30;91.80;;;;;;6128051;23;20012;-85
2023/05/08 04:44:49;;;;;;;7.00;4.40;;;19.30;91.80;;;;;;6127296;23;20017;-82
2023/05/08 04:47:15;;;;;;;5.68;4.50;;;19.30;91.90;;;;;;6126640;23;20002;-83
2023/05/08 04:49:40;;;;;;;4.80;4.15;;;19.30;91.90;;;;;;6128436;23;20021;-89
2023/05/08 04:52:06;;;;;;;4.75;3.83;;;19.30;92.00;;;;;;6102396;23;20013;-82
2023/05/08 04:54:34;;;;;;;5.45;4.05;;;19.20;91.90;;;;;;6126872;23;20013;-81
2023/05/08 04:57:00;;;;;;;7.90;4.53;;;19.20;91.90;;;;;;6126645;23;20115;-80
2023/05/08 04:59:27;;;;;;;6.28;4.38;;;19.20;92.10;;;;;;6125957;23;20014;-80
2023/05/08 05:01:52;;;;;;;4.90;4.07;;;19.30;92.00;;;;;;6126192;23;20010;-80
2023/05/08 05:04:18;;;;;;;5.70;4.68;;;19.30;91.90;;;;;;6100929;23;20527;-82
2023/05/08 05:06:44;;;;;;;3.67;3.15;;;19.30;91.80;;;;;;6126506;23;20002;-82
2023/05/08 05:09:10;;;;;;;4.43;3.55;;;19.20;91.70;;;;;;6125867;23;20077;-83
2023/05/08 05:11:36;;;;;;;4.97;3.58;;;19.10;91.60;;;;;;6125567;23;20437;-82
2023/05/08 05:14:02;;;;;;;4.72;3.65;;;19.10;91.70;;;;;;6126938;23;20012;-82
2023/05/08 05:16:27;;;;;;;3.70;3.10;;;19.10;91.60;;;;;;6125494;23;20441;-80
2023/05/08 05:18:53;;;;;;;6.35;3.40;;;19.10;91.50;;;;;;6125509;23;20006;-80
2023/05/08 05:21:22;;;;;;;3.35;2.97;;;19.10;91.50;;;;;;6125917;23;20078;-80
2023/05/08 05:23:47;;;;;;;3.65;3.30;;;19.10;91.60;;;;;;6099430;23;20006;-81
2023/05/08 05:26:13;;;;;;;5.63;3.50;;;19.10;91.60;;;;;;6122862;23;20755;-81
2023/05/08 05:28:39;;;;;;;4.22;3.35;;;19.10;91.60;;;;;;6100112;23;20072;-81
2023/05/08 05:31:05;;;;;;;6.38;3.80;;;19.20;91.60;;;;;;6125786;23;20002;-81
2023/05/08 05:33:31;;;;;;;4.20;3.72;;;19.20;91.50;;;;;;6100471;23;20010;-81
2023/05/08 05:35:58;;;;;;;4.25;3.72;;;19.20;91.50;;;;;;6126011;23;20089;-81
2023/05/08 05:38:23;;;;;;;4.53;4.13;;;19.20;91.40;;;;;;6125942;23;20013;-82
2023/05/08 05:40:49;;;;;;;4.95;4.03;;;19.20;91.60;;;;;;6125626;23;20037;-82
2023/05/08 05:43:15;;;;;;;6.35;4.18;;;19.10;91.60;;;;;;6126107;23;20002;-81
2023/05/08 05:45:41;;;;;;;4.32;3.75;;;19.20;91.50;;;;;;6123903;23;20038;-82
2023/05/08 05:48:06;;;;;;;10.23;5.20;;;19.20;91.50;;;;;;6125494;23;19998;-81
2023/05/08 05:50:32;;;;;;;4.75;3.80;;;19.20;91.40;;;;;;6125529;23;20447;-80
2023/05/08 05:52:58;;;;;;;5.47;4.13;;;19.10;91.30;;;;;;6125859;23;20029;-82
2023/05/08 05:55:23;;;;;;;4.35;3.78;;;19.10;91.40;;;;;;6124899;23;20006;-83
2023/05/08 05:57:49;;;;;;;5.07;3.88;;;19.10;91.50;;;;;;6126075;23;20050;-85
2023/05/08 06:00:16;;;;;;;4.30;3.22;;;19.10;91.50;;;;;;6125700;23;20005;-85
2023/05/08 06:02:42;;;;;;;3.97;3.20;;;19.20;91.50;;;;;;6124118;23;20021;-82
2023/05/08 06:05:09;;;;;;;5.47;3.92;;;19.20;91.40;;;;;;6098864;23;20002;-82
2023/05/08 06:07:35;;;;;;;3.50;3.00;;;19.10;91.40;;;;;;6125288;23;20076;-82
2023/05/08 06:10:01;;;;;;;4.43;3.25;;;19.10;91.50;;;;;;6124934;23;20036;-83
2023/05/08 06:12:27;;;;;;;2.90;2.60;;;19.10;91.70;;;;;;6099174;23;20056;-81
2023/05/08 06:14:53;;;;;;;3.90;3.40;;;19.20;91.70;;;;;;6121465;23;20436;-81
2023/05/08 06:17:19;;;;;;;4.35;3.30;;;19.10;91.60;;;;;;6123675;23;20428;-80
2023/05/08 06:19:49;;;;;;;4.25;3.17;;;19.10;91.40;;;;;;6125496;23;20002;-81
2023/05/08 06:22:16;;;;;;;4.65;3.08;;;19.10;91.50;;;;;;6099456;23;20060;-81
2023/05/08 06:24:42;;;;;;;3.20;2.55;;;19.10;91.50;;;;;;6125485;23;20054;-81
2023/05/08 06:27:09;;;;;;;3.75;2.88;;;19.10;91.50;;;;;;6125700;23;20479;-80
2023/05/08 06:29:34;;;;;;;5.20;3.35;;;19.10;91.60;;;;;;6125742;23;19998;-80
2023/05/08 06:32:00;;;;;;;5.00;3.50;;;19.10;91.70;;;;;;6124955;23;20120;-80
2023/05/08 06:34:26;;;;;;;4.97;3.90;;;19.00;91.90;;;;;;6099741;23;20696;-81
2023/05/08 06:36:52;;;;;;;4.97;3.45;;;19.00;91.90;;;;;;6126420;23;20332;-80
2023/05/08 06:39:17;;;;;;;3.58;2.75;;;19.00;91.60;;;;;;6125885;23;20097;-81
2023/05/08 06:41:47;;;;;;;4.13;2.78;;;19.00;91.80;;;;;;6125790;23;20471;-80
2023/05/08 06:44:13;;;;;;;3.35;2.72;;;19.00;91.70;;;;;;6099539;23;20448;-81
2023/05/08 06:46:39;;;;;;;3.80;3.50;;;19.00;91.70;;;;;;6125298;23;19998;-81
2023/05/08 06:49:05;;;;;;;4.93;3.58;;;18.90;91.60;;;;;;6125582;23;20002;-80
2023/05/08 06:51:31;;;;;;;3.72;2.90;;;19.00;91.70;;;;;;6125900;23;20002;-81
2023/05/08 06:53:57;;;;;;;4.55;3.00;;;19.00;91.60;;;;;;6125929;23;20002;-81
2023/05/08 06:56:23;;;;;;;5.15;3.40;;;19.00;91.60;;;;;;6125240;23;20005;-84
2023/05/08 06:58:49;;;;;;;3.42;2.85;;;19.00;91.50;;;;;;6125830;23;20085;-84
2023/05/08 07:01:15;;;;;;;3.33;2.88;;;19.00;91.40;;;;;;6125218;23;20010;-85
2023/05/08 07:03:41;;;;;;;3.20;2.90;;;19.10;91.50;;;;;;6099011;23;20076;-84
2023/05/08 07:06:10;;;;;;;3.20;2.90;;;19.10;91.50;;;;;;6125047;23;20017;-85
2023/05/08 07:08:36;;;;;;;3.35;3.05;;;19.10;91.60;;;;;;6125440;23;20450;-84
2023/05/08 07:11:02;;;;;;;4.78;3.35;;;19.10;91.30;;;;;;6099860;23;20010;-83
2023/05/08 07:13:28;;;;;;;3.67;2.78;;;19.10;91.40;;;;;;6125705;23;20056;-84
2023/05/08 07:15:54;;;;;;;4.53;2.50;;;19.10;91.60;;;;;;6125364;23;20030;-84
2023/05/08 07:18:20;;;;;;;5.00;3.08;;;19.20;91.50;;;;;;6099605;23;20010;-84
2023/05/08 07:20:46;;;;;;;3.67;3.25;;;19.30;91.50;;;;;;6125356;23;20013;-84
2023/05/08 07:23:12;;;;;;;4.10;3.00;;;19.30;91.50;;;;;;6125109;23;20030;-85
2023/05/08 07:25:38;;;;;;;3.33;3.00;;;19.30;91.40;;;;;;6125074;23;19998;-84
2023/05/08 07:28:03;;;;;;;5.72;2.42;;;19.30;91.30;;;;;;6099225;23;20329;-84
2023/05/08 07:30:29;;;;;;;3.58;2.95;;;19.30;91.10;;;;;;6125676;23;20027;-83
2023/05/08 07:32:55;;;;;;;3.50;2.80;;;19.40;91.40;;;;;;6124452;23;20006;-84
2023/05/08 07:35:21;;;;;;;4.75;3.00;;;19.50;91.70;;;;;;6123088;23;20123;-84
2023/05/08 07:37:46;;;;;;;5.85;4.00;;;19.60;91.90;;;;;;6124913;23;20068;-84
2023/05/08 07:40:12;;;;;;;4.60;3.53;;;19.70;91.80;;;;;;6123644;23;20170;-84
2023/05/08 07:42:41;;;;;;;4.97;3.67;;;19.70;91.50;;;;;;6124089;23;20009;-83
2023/05/08 07:45:08;;;;;;;5.47;4.20;;;19.80;91.30;;;;;;6125516;23;20010;-83
2023/05/08 07:47:34;;;;;;;5.25;3.60;;;20.00;91.30;;;;;;6121934;23;20025;-81
2023/05/08 07:50:00;;;;;;;5.10;3.50;;;20.00;91.20;;;;;;6123440;23;19998;-81
2023/05/08 07:52:26;;;;;;;5.68;3.40;;;20.10;91.10;;;;;;6124462;23;20017;-81
2023/05/08 07:54:52;;;;;;;5.20;4.00;;;20.10;91.20;;;;;;6123356;23;20005;-81
2023/05/08 07:57:17;;;;;;;4.50;3.53;;;20.20;91.20;;;;;;6122970;23;20002;-81
2023/05/08 07:59:43;;;;;;;3.80;3.50;;;20.20;91.20;;;;;;6123447;23;20087;-80
2023/05/08 08:02:09;;;;;;;4.05;3.40;;;20.30;91.00;;;;;;6124173;23;20013;-79
2023/05/08 08:04:34;;;;;;;6.20;3.47;;;20.40;91.00;;;;;;6123369;23;20078;-81
2023/05/08 08:07:00;;;;;;;5.07;4.15;;;20.40;91.00;;;;;;6121654;23;20006;-80
2023/05/08 08:09:25;;;;;;;4.40;3.40;;;20.50;90.80;;;;;;6119062;23;20002;-81
2023/05/08 08:11:51;;;;;;;3.75;3.17;;;20.40;90.50;;;;;;6122487;23;20010;-80
2023/05/08 08:14:17;;;;;;;4.38;3.03;;;20.40;90.30;;;;;;6123192;23;20006;-80
2023/05/08 08:16:43;;;;;;;4.82;3.17;;;20.40;90.20;;;;;;6123314;23;20030;-80
2023/05/08 08:19:09;;;;;;;4.53;3.55;;;20.40;90.40;;;;;;6123762;23;20429;-80
2023/05/08 08:21:35;;;;;;;4.13;2.90;;;20.40;90.60;;;;;;6124114;23;20029;-80
2023/05/08 08:24:01;;;;;;;6.05;3.90;;;20.50;90.40;;;;;;6123737;23;20481;-80
2023/05/08 08:26:27;;;;;;;3.88;3.47;;;20.50;90.60;;;;;;6125951;23;20026;-80
2023/05/08 08:28:52;;;;;;;4.18;3.10;;;20.50;90.60;;;;;;6127308;23;20420;-80
2023/05/08 08:31:18;;;;;;;5.32;3.58;;;20.50;90.40;;;;;;6127790;23;20080;-80
2023/05/08 08:33:45;;;;;;;4.97;3.83;;;20.50;90.30;;;;;;6127084;23;20008;-80
2023/05/08 08:36:15;;;;;;;3.75;3.33;;;20.50;90.40;;;;;;6127906;23;20053;-80
2023/05/08 08:38:41;;;;;;;3.83;3.22;;;20.50;90.10;;;;;;6127037;23;20073;-80
2023/05/08 08:41:07;;;;;;;3.47;3.15;;;20.50;90.10;;;;;;6126604;23;20362;-79
2023/05/08 08:43:33;;;;;;;3.80;3.40;;;20.60;90.30;;;;;;6100915;23;20013;-80
2023/05/08 08:46:07;;;;;;;3.88;3.03;;;20.60;90.10;;;;;;6101343;23;20018;-80
2023/05/08 08:48:34;;;;;;;3.63;2.90;;;20.60;90.00;;;;;;6126708;23;20002;-79
2023/05/08 08:51:04;;;;;;;3.63;2.90;;;20.70;90.10;;;;;;6127504;23;20317;-79
2023/05/08 08:53:36;;;;;;;3.47;3.17;;;20.60;89.70;;;;;;6126951;23;20002;-81
2023/05/08 08:56:07;;;;;;;4.05;3.25;;;20.60;90.00;;;;;;6126580;23;20006;-80
2023/05/08 08:58:42;;;;;;;6.22;3.78;;;20.60;89.90;;;;;;6125918;23;20020;-82
2023/05/08 09:01:12;;;;;;;3.85;3.45;;;20.60;90.00;;;;;;6126177;23;20013;-82
2023/05/08 09:03:38;;;;;;;;;;;20.60;89.90;;;;;;6127997;23;20045;-84
2023/05/08 09:06:04;;;;;;;4.03;3.10;;;20.60;89.40;;;;;;6127867;23;19901;-82
2023/05/08 09:08:31;;;;;;;4.75;3.03;;;20.60;89.30;;;;;;6100577;23;20309;-82
2023/05/08 09:10:57;;;;;;;16.60;4.88;;;20.60;89.70;;;;;;6126053;23;20020;-81
2023/05/08 09:13:22;;;;;;;5.78;3.42;;;20.50;89.70;;;;;;6126510;23;20009;-81
2023/05/08 09:15:49;;;;;;;5.68;4.60;;;20.50;89.60;;;;;;6126240;23;20336;-80
2023/05/08 09:18:16;;;;;;;4.25;3.03;;;20.40;90.10;;;;;;6076577;23;20014;-88
2023/05/08 09:20:43;;;;;;;5.72;3.33;;;20.40;90.10;;;;;;6125981;23;20002;-85
2023/05/08 09:23:10;;;;;;;5.88;3.28;;;20.40;90.10;;;;;;6100119;23;20349;-81
2023/05/08 09:25:47;;;;;;;6.45;4.20;;;20.30;90.00;;;;;;6122657;23;20002;-80
2023/05/08 09:28:21;;;;;;;4.15;3.70;;;20.30;90.10;;;;;;6123242;23;20001;-79
2023/05/08 09:30:57;;;;;;;4.68;3.85;;;20.20;90.20;;;;;;6122928;23;19998;-78
2023/05/08 09:33:25;;;;;;;4.18;3.33;;;20.30;90.30;;;;;;6122052;23;20073;-79
2023/05/08 09:35:51;;;;;;;4.25;3.78;;;20.30;90.40;;;;;;6122879;23;20005;-79
2023/05/08 09:38:37;;;;;;;3.67;3.25;;;20.30;90.40;;;;;;6121975;23;20105;-79
2023/05/08 09:41:13;;;;;;;6.90;3.83;;;20.40;90.40;;;;;;6119870;23;20010;-82
2023/05/08 09:43:39;;;;;;;4.00;3.60;;;20.50;90.50;;;;;;6122750;23;20002;-81
2023/05/08 09:46:26;;;;;;;4.50;3.30;;;20.50;90.50;;;;;;6122685;23;20017;-81
2023/05/08 09:48:54;;;;;;;3.22;2.92;;;20.60;90.80;;;;;;6122912;23;20006;-81
2023/05/08 09:51:20;;;;;;;5.57;3.70;;;20.60;90.80;;;;;;6121890;23;20006;-81
2023/05/08 09:53:46;;;;;;;4.70;3.13;;;20.70;90.70;;;;;;6122626;23;20006;-82
2023/05/08 09:56:11;;;;;;;5.18;3.60;;;20.80;90.60;;;;;;6122540;23;20010;-81
2023/05/08 09:58:42;;;;;;;3.47;2.90;;;20.90;90.50;;;;;;6122339;23;20046;-82
2023/05/08 10:01:27;;;;;;;3.95;3.20;;;20.90;90.50;;;;;;6122516;23;20077;-81
2023/05/08 10:03:53;;;;;;;4.20;3.03;;;21.00;90.30;;;;;;6123333;23;20314;-81
2023/05/08 10:06:19;;;;;;;3.60;3.30;;;21.10;90.00;;;;;;6122885;23;20081;-81
2023/05/08 10:08:45;;;;;;;4.90;3.38;;;21.10;89.80;;;;;;6122883;23;20006;-81
2023/05/08 10:11:17;;;;;;;3.72;2.95;;;21.20;89.10;;;;;;6122071;23;20013;-82
2023/05/08 10:13:44;;;;;;;6.20;3.38;;;21.20;89.10;;;;;;6096204;23;20014;-82
2023/05/08 10:16:17;;;;;;;3.78;3.05;;;21.20;89.10;;;;;;6122547;23;20006;-81
2023/05/08 10:18:48;;;;;;;2.80;2.55;;;21.30;88.80;;;;;;6122610;23;20078;-81
2023/05/08 10:21:15;;;;;;;3.42;2.85;;;21.30;88.30;;;;;;6122972;23;20094;-81
2023/05/08 10:23:47;;;;;;;4.03;2.80;;;21.20;88.20;;;;;;6123187;23;19998;-81
2023/05/08 10:26:18;;;;;;;4.50;3.15;;;21.30;88.10;;;;;;6122581;23;20033;-81
2023/05/08 10:28:53;;;;;;;4.25;3.20;;;21.30;87.90;;;;;;6097769;23;20692;-81
2023/05/08 10:31:20;;;;;;;4.00;2.78;;;21.30;87.90;;;;;;6122769;23;20025;-81
2023/05/08 10:33:50;;;;;;;3.60;3.30;;;21.30;86.90;;;;;;6096395;23;20343;-81
2023/05/08 10:36:16;;;;;;;3.65;2.90;;;21.30;87.00;;;;;;6121802;23;20065;-81
2023/05/08 10:38:42;;;;;;;2.63;2.42;;;21.20;86.90;;;;;;6121707;23;20014;-81
2023/05/08 10:41:10;;;;;;;4.57;2.55;;;21.20;87.00;;;;;;6119822;23;20002;-82
2023/05/08 10:43:40;;;;;;;3.10;2.80;;;21.20;86.90;;;;;;6122222;23;20002;-81
2023/05/08 10:46:20;;;;;;;2.88;2.60;;;21.20;86.90;;;;;;6121888;23;20429;-81
2023/05/08 10:48:58;;;;;;;3.33;2.70;;;21.20;87.00;;;;;;6122212;23;20057;-81
2023/05/08 10:52:17;;;;;;;3.42;2.50;;;21.30;86.60;;;;;;6122134;23;20433;-81
2023/05/08 10:55:21;;;;;;;2.90;2.33;;;21.30;86.40;;;;;;6003930;23;20056;-81
2023/05/08 10:58:08;;;;;;;4.07;3.13;;;21.30;86.50;;;;;;6122473;23;20006;-82
2023/05/08 11:00:52;;;;;;;3.15;2.35;;;21.30;86.30;;;;;;6122392;23;20010;-81
2023/05/08 11:03:28;;;;;;;4.97;3.28;;;21.30;85.80;;;;;;6095525;23;20012;-82
2023/05/08 11:05:56;;;;;;;3.47;2.55;;;21.30;85.70;;;;;;6122504;23;20002;-81
2023/05/08 11:08:26;;;;;;;2.63;2.30;;;21.30;85.70;;;;;;6122340;23;20337;-81
2023/05/08 11:11:01;;;;;;;2.88;2.28;;;21.30;86.00;;;;;;6122440;23;20010;-81
2023/05/08 11:13:43;;;;;;;3.13;2.35;;;21.20;85.90;;;;;;6122183;23;20013;-81
2023/05/08 11:16:11;;;;;;;3.75;2.70;;;21.30;85.80;;;;;;6096779;23;20014;-82
2023/05/08 11:18:57;;;;;;;3.20;2.78;;;21.20;85.50;;;;;;6123292;23;20053;-82
2023/05/08 11:21:23;;;;;;;2.80;2.35;;;21.20;85.90;;;;;;6122998;23;20197;-81
2023/05/08 11:23:59;;;;;;;2.70;2.50;;;21.20;85.40;;;;;;6124095;23;20097;-82
2023/05/08 11:26:47;;;;;;;4.50;2.55;;;21.20;85.40;;;;;;6124339;23;20005;-82
2023/05/08 11:29:16;;;;;;;3.15;2.55;;;21.20;85.60;;;;;;6125426;23;20333;-82
2023/05/08 11:31:52;;;;;;;2.65;2.30;;;21.20;86.00;;;;;;6125115;23;20333;-81
2023/05/08 11:34:42;;;;;;;5.13;2.70;;;21.20;86.20;;;;;;6125451;23;20041;-81
2023/05/08 11:37:09;;;;;;;2.60;2.40;;;21.20;86.70;;;;;;6125658;23;20006;-81
2023/05/08 11:39:35;;;;;;;3.25;2.95;;;21.20;87.00;;;;;;6125687;23;20001;-81
2023/05/08 11:42:40;;;;;;;3.88;3.08;;;21.20;87.20;;;;;;6123528;23;20017;-82
2023/05/08 11:45:12;;;;;;;4.20;2.95;;;21.20;87.00;;;;;;6006487;23;20455;-81
2023/05/08 11:48:18;;;;;;;3.45;2.50;;;21.20;87.20;;;;;;6006702;23;20008;-82
2023/05/08 11:50:44;;;;;;;3.45;2.42;;;21.20;87.70;;;;;;6099099;23;20013;-81
2023/05/08 11:53:10;;;;;;;2.97;2.78;;;21.20;87.70;;;;;;6123720;23;20009;-81
2023/05/08 11:55:35;;;;;;;3.55;3.10;;;21.20;87.70;;;;;;6124926;23;20002;-81
2023/05/08 11:58:10;;;;;;;3.42;2.83;;;21.20;87.20;;;;;;6124433;23;20028;-82
2023/05/08 12:00:48;;;;;;;4.13;3.25;;;21.30;87.70;;;;;;6124488;23;20048;-81
2023/05/08 12:03:16;;;;;;;5.70;3.03;;;21.20;88.10;;;;;;6126106;23;20064;-82
2023/05/08 12:05:42;;;;;;;3.50;3.15;;;21.30;87.80;;;;;;6127033;23;19998;-81
2023/05/08 12:08:10;;;;;;;4.05;3.38;;;21.30;87.70;;;;;;6126875;23;20005;-82
2023/05/08 12:10:45;;;;;;;6.10;3.40;;;21.30;87.90;;;;;;6122085;23;20006;-81
2023/05/08 12:13:25;;;;;;;4.80;3.58;;;21.20;87.40;;;;;;6123629;23;20411;-80
2023/05/08 12:15:53;;;;;;;3.95;3.55;;;21.30;87.60;;;;;;6097769;23;20006;-81
2023/05/08 12:18:20;;;;;;;3.00;2.67;;;21.30;87.40;;;;;;6124158;23;20084;-81
2023/05/08 12:20:52;;;;;;;3.47;2.80;;;21.20;87.00;;;;;;6124288;23;20002;-81
2023/05/08 12:23:18;;;;;;;3.83;3.13;;;21.30;87.50;;;;;;6123511;23;20036;-81
2023/05/08 12:25:43;;;;;;;4.25;3.85;;;21.30;87.50;;;;;;6123947;23;20016;-81
2023/05/08 12:28:09;;;;;;;3.60;3.10;;;21.30;87.60;;;;;;6124063;23;20006;-81
2023/05/08 12:30:35;;;;;;;3.28;2.97;;;21.30;87.70;;;;;;6123890;23;20009;-81
2023/05/08 12:33:03;;;;;;;5.50;3.13;;;21.40;88.00;;;;;;6120645;23;20002;-81
2023/05/08 12:35:30;;;;;;;3.63;3.10;;;21.40;88.00;;;;;;6124381;23;20444;-81
2023/05/08 12:38:06;;;;;;;4.18;3.60;;;21.40;87.90;;;;;;6123437;23;20009;-81
2023/05/08 12:40:42;;;;;;;3.58;3.28;;;21.40;87.00;;;;;;6123964;23;20030;-81
2023/05/08 12:43:09;;;;;;;3.47;2.97;;;21.40;86.60;;;;;;6097927;23;20010;-81
2023/05/08 12:45:41;;;;;;;5.18;3.15;;;21.40;86.80;;;;;;6123423;23;20014;-81
2023/05/08 12:48:11;;;;;;;4.07;3.38;;;21.40;86.70;;;;;;6123573;23;20076;-81
2023/05/08 12:50:39;;;;;;;4.60;3.55;;;21.50;86.60;;;;;;6123440;23;20006;-81
2023/05/08 12:53:13;;;;;;;5.43;3.70;;;21.50;86.20;;;;;;6122504;23;20081;-81
2023/05/08 12:55:50;;;;;;;3.58;3.28;;;21.50;86.50;;;;;;6123592;23;20034;-81
2023/05/08 12:58:16;;;;;;;4.68;3.95;;;21.60;87.00;;;;;;6122856;23;20369;-81
2023/05/08 13:00:47;;;;;;;4.18;3.50;;;21.60;86.80;;;;;;6123334;23;20073;-81
2023/05/08 13:03:25;;;;;;;4.03;3.58;;;21.70;86.60;;;;;;6097054;23;20367;-81
2023/05/08 13:05:51;;;;;;;3.50;3.03;;;21.80;86.40;;;;;;6097804;23;20002;-81
2023/05/08 13:08:17;;;;;;;4.90;3.88;;;21.80;86.40;;;;;;6124568;23;20002;-82
2023/05/08 13:10:50;;;;;;;3.67;3.13;;;22.00;86.30;;;;;;6126243;23;20002;-82
2023/05/08 13:13:18;;;;;;;6.80;4.10;;;22.10;85.70;;;;;;6125576;23;20067;-82
2023/05/08 13:15:45;;;;;;;5.50;3.53;;;22.30;85.70;;;;;;6121142;23;20571;-80
2023/05/08 13:18:11;;;;;;;3.63;2.92;;;22.40;85.40;;;;;;6124320;23;20006;-79
2023/05/08 13:20:37;;;;;;;5.40;3.47;;;22.60;84.80;;;;;;6126149;23;20004;-80
2023/05/08 13:23:03;;;;;;;5.60;4.47;;;22.70;84.30;;;;;;6123930;23;19916;-83
2023/05/08 13:25:30;;;;;;;5.63;3.65;;;22.70;83.80;;;;;;6124384;23;19998;-80
2023/05/08 13:27:56;;;;;;;4.75;3.63;;;22.60;84.00;;;;;;6126063;23;20002;-80
2023/05/08 13:30:22;;;;;;;4.28;3.45;;;22.80;84.00;;;;;;6126307;23;20471;-80
2023/05/08 13:32:48;;;;;;;3.55;3.00;;;22.80;83.50;;;;;;6126324;23;20002;-79
2023/05/08 13:35:14;;;;;;;3.80;3.03;;;22.80;83.10;;;;;;6125454;23;20069;-80
2023/05/08 13:37:40;;;;;;;4.20;2.90;;;23.00;83.20;;;;;;6117192;23;20391;-76
2023/05/08 13:40:07;;;;;;;4.57;3.00;;;23.00;82.60;;;;;;6124760;23;20014;-77
2023/05/08 13:42:33;;;;;;;3.53;3.22;;;23.10;81.40;;;;;;6126016;23;20001;-76
2023/05/08 13:44:59;;;;;;;3.90;3.03;;;23.00;80.90;;;;;;6126368;23;20013;-76